sensor_id;sensor_type;location;lat;lon;timestamp;temperature;humidity
12089;DHT22;6107;49.078;8.578;2023-02-18T00:01:56;12.70;99.90
12089;DHT22;6107;49.078;8.578;2023-02-18T00:04:21;12.70;99.90
12089;DHT22;6107;49.078;8.578;2023-02-18T00:06:47;12.70;99.90
12089;DHT22;6107;49.078;8.578;2023-02-18T00:09:12;12.70;99.90
12089;DHT22;6107;49.078;8.578;2023-02-18T00:11:38;12.80;99.90
12089;DHT22;6107;49.078;8.578;2023-02-18T00:14:06;12.80;99.90
12089;DHT22;6107;49.078;8.578;2023-02-18T00:16:32;12.80;99.90
12089;DHT22;6107;49.078;8.578;2023-02-18T00:19:00;15.00;99.90
12089;DHT22;6107;49.078;8.578;2023-02-18T00:21:26;12.80;99.90
12089;DHT22;6107;49.078;8.578;2023-02-18T00:23:52;12.80;99.90
12089;DHT22;6107;49.078;8.578;2023-02-18T00:26:18;12.80;99.90
12089;DHT22;6107;49.078;8.578;2023-02-18T00:28:44;12.80;99.90
12089;DHT22;6107;49.078;8.578;2023-02-18T00:31:12;12.80;99.90
12089;DHT22;6107;49.078;8.578;2023-02-18T00:33:39;12.80;99.90
12089;DHT22;6107;49.078;8.578;2023-02-18T00:36:07;12.80;99.90
12089;DHT22;6107;49.078;8.578;2023-02-18T00:38:33;12.80;99.90
12089;DHT22;6107;49.078;8.578;2023-02-18T00:40:59;12.80;99.90
12089;DHT22;6107;49.078;8.578;2023-02-18T00:43:25;12.80;99.90
12089;DHT22;6107;49.078;8.578;2023-02-18T00:45:51;12.80;99.90
12089;DHT22;6107;49.078;8.578;2023-02-18T00:48:17;12.70;99.90
12089;DHT22;6107;49.078;8.578;2023-02-18T00:50:43;12.70;99.90
12089;DHT22;6107;49.078;8.578;2023-02-18T00:53:10;12.70;99.90
12089;DHT22;6107;49.078;8.578;2023-02-18T00:55:43;12.70;99.90
12089;DHT22;6107;49.078;8.578;2023-02-18T00:58:09;12.60;99.90
12089;DHT22;6107;49.078;8.578;2023-02-18T01:00:35;12.60;99.90
12089;DHT22;6107;49.078;8.578;2023-02-18T01:03:00;12.70;99.90
12089;DHT22;6107;49.078;8.578;2023-02-18T01:05:26;12.60;99.90
12089;DHT22;6107;49.078;8.578;2023-02-18T01:07:51;12.60;99.90
12089;DHT22;6107;49.078;8.578;2023-02-18T01:10:17;12.60;99.90
12089;DHT22;6107;49.078;8.578;2023-02-18T01:12:42;12.60;99.90
12089;DHT22;6107;49.078;8.578;2023-02-18T01:15:08;12.60;99.90
12089;DHT22;6107;49.078;8.578;2023-02-18T01:17:34;12.70;99.90
12089;DHT22;6107;49.078;8.578;2023-02-18T01:19:59;12.80;99.90
12089;DHT22;6107;49.078;8.578;2023-02-18T01:22:25;12.80;99.90
12089;DHT22;6107;49.078;8.578;2023-02-18T01:24:50;12.70;99.90
12089;DHT22;6107;49.078;8.578;2023-02-18T01:27:16;12.80;99.90
12089;DHT22;6107;49.078;8.578;2023-02-18T01:29:42;12.80;99.90
12089;DHT22;6107;49.078;8.578;2023-02-18T01:32:07;12.80;99.90
12089;DHT22;6107;49.078;8.578;2023-02-18T01:34:33;12.80;99.90
12089;DHT22;6107;49.078;8.578;2023-02-18T01:36:59;12.70;99.90
12089;DHT22;6107;49.078;8.578;2023-02-18T01:39:25;12.70;99.90
12089;DHT22;6107;49.078;8.578;2023-02-18T01:41:51;12.70;99.90
12089;DHT22;6107;49.078;8.578;2023-02-18T01:44:23;12.70;99.90
12089;DHT22;6107;49.078;8.578;2023-02-18T01:46:50;12.70;99.90
12089;DHT22;6107;49.078;8.578;2023-02-18T01:49:20;12.70;99.90
12089;DHT22;6107;49.078;8.578;2023-02-18T01:51:58;12.70;99.90
12089;DHT22;6107;49.078;8.578;2023-02-18T01:54:38;12.70;99.90
12089;DHT22;6107;49.078;8.578;2023-02-18T01:57:06;12.70;99.90
12089;DHT22;6107;49.078;8.578;2023-02-18T01:59:42;12.60;99.90
12089;DHT22;6107;49.078;8.578;2023-02-18T02:02:13;12.70;99.90
12089;DHT22;6107;49.078;8.578;2023-02-18T02:04:39;12.70;99.90
12089;DHT22;6107;49.078;8.578;2023-02-18T02:07:05;12.60;99.90
12089;DHT22;6107;49.078;8.578;2023-02-18T02:09:33;12.60;99.90
12089;DHT22;6107;49.078;8.578;2023-02-18T02:34:48;12.50;99.90
12089;DHT22;6107;49.078;8.578;2023-02-18T02:37:58;12.50;99.90
12089;DHT22;6107;49.078;8.578;2023-02-18T02:40:37;12.50;99.90
12089;DHT22;6107;49.078;8.578;2023-02-18T02:43:30;12.50;99.90
12089;DHT22;6107;49.078;8.578;2023-02-18T02:46:05;12.50;99.90
12089;DHT22;6107;49.078;8.578;2023-02-18T02:51:55;12.50;99.90
12089;DHT22;6107;49.078;8.578;2023-02-18T02:54:25;12.50;99.90
12089;DHT22;6107;49.078;8.578;2023-02-18T02:57:05;12.50;99.90
12089;DHT22;6107;49.078;8.578;2023-02-18T02:59:32;12.40;99.90
12089;DHT22;6107;49.078;8.578;2023-02-18T03:02:23;12.40;99.90
12089;DHT22;6107;49.078;8.578;2023-02-18T03:05:17;12.40;99.90
12089;DHT22;6107;49.078;8.578;2023-02-18T03:08:04;12.40;99.90
12089;DHT22;6107;49.078;8.578;2023-02-18T03:11:02;12.40;99.90
12089;DHT22;6107;49.078;8.578;2023-02-18T03:13:58;12.40;99.90
12089;DHT22;6107;49.078;8.578;2023-02-18T03:16:48;12.30;99.90
12089;DHT22;6107;49.078;8.578;2023-02-18T03:19:27;12.30;99.90
12089;DHT22;6107;49.078;8.578;2023-02-18T03:22:07;12.30;99.90
12089;DHT22;6107;49.078;8.578;2023-02-18T03:24:39;12.30;99.90
12089;DHT22;6107;49.078;8.578;2023-02-18T03:27:20;12.30;99.90
12089;DHT22;6107;49.078;8.578;2023-02-18T03:29:51;12.20;99.90
12089;DHT22;6107;49.078;8.578;2023-02-18T03:32:21;12.30;99.90
12089;DHT22;6107;49.078;8.578;2023-02-18T03:34:51;12.20;99.90
12089;DHT22;6107;49.078;8.578;2023-02-18T03:37:18;12.20;99.90
12089;DHT22;6107;49.078;8.578;2023-02-18T03:39:47;12.20;99.90
12089;DHT22;6107;49.078;8.578;2023-02-18T03:42:15;12.20;99.90
12089;DHT22;6107;49.078;8.578;2023-02-18T03:44:41;12.20;99.90
12089;DHT22;6107;49.078;8.578;2023-02-18T03:47:06;12.20;99.90
12089;DHT22;6107;49.078;8.578;2023-02-18T03:49:32;12.20;99.90
12089;DHT22;6107;49.078;8.578;2023-02-18T03:51:58;12.20;99.90
12089;DHT22;6107;49.078;8.578;2023-02-18T03:54:23;12.20;99.90
12089;DHT22;6107;49.078;8.578;2023-02-18T03:56:49;12.30;99.90
12089;DHT22;6107;49.078;8.578;2023-02-18T03:59:14;12.20;99.90
12089;DHT22;6107;49.078;8.578;2023-02-18T04:01:40;12.20;99.90
12089;DHT22;6107;49.078;8.578;2023-02-18T04:04:05;12.20;99.90
12089;DHT22;6107;49.078;8.578;2023-02-18T04:06:31;12.20;99.90
12089;DHT22;6107;49.078;8.578;2023-02-18T04:08:56;12.30;99.90
12089;DHT22;6107;49.078;8.578;2023-02-18T04:11:22;12.30;99.90
12089;DHT22;6107;49.078;8.578;2023-02-18T04:13:47;12.20;99.90
12089;DHT22;6107;49.078;8.578;2023-02-18T04:16:13;12.20;99.90
12089;DHT22;6107;49.078;8.578;2023-02-18T04:18:38;12.20;99.90
12089;DHT22;6107;49.078;8.578;2023-02-18T04:21:04;12.20;99.90
12089;DHT22;6107;49.078;8.578;2023-02-18T04:23:30;12.20;99.90
12089;DHT22;6107;49.078;8.578;2023-02-18T04:25:55;12.20;99.90
12089;DHT22;6107;49.078;8.578;2023-02-18T04:28:21;12.20;99.90
12089;DHT22;6107;49.078;8.578;2023-02-18T04:30:47;12.00;99.90
12089;DHT22;6107;49.078;8.578;2023-02-18T04:33:13;12.20;99.90
12089;DHT22;6107;49.078;8.578;2023-02-18T04:35:38;12.10;99.90
12089;DHT22;6107;49.078;8.578;2023-02-18T04:38:08;12.10;99.90
12089;DHT22;6107;49.078;8.578;2023-02-18T04:40:34;12.00;99.90
12089;DHT22;6107;49.078;8.578;2023-02-18T04:43:00;12.00;99.90
12089;DHT22;6107;49.078;8.578;2023-02-18T04:45:27;12.00;99.90
12089;DHT22;6107;49.078;8.578;2023-02-18T04:47:53;12.00;99.90
12089;DHT22;6107;49.078;8.578;2023-02-18T04:50:19;12.00;99.90
12089;DHT22;6107;49.078;8.578;2023-02-18T04:52:45;12.00;99.90
12089;DHT22;6107;49.078;8.578;2023-02-18T04:55:10;12.00;99.90
12089;DHT22;6107;49.078;8.578;2023-02-18T04:57:36;12.00;99.90
12089;DHT22;6107;49.078;8.578;2023-02-18T05:00:04;11.90;99.90
12089;DHT22;6107;49.078;8.578;2023-02-18T05:02:31;12.00;99.90
12089;DHT22;6107;49.078;8.578;2023-02-18T05:04:57;12.00;99.90
12089;DHT22;6107;49.078;8.578;2023-02-18T05:07:22;12.00;99.90
12089;DHT22;6107;49.078;8.578;2023-02-18T05:09:48;11.90;99.90
12089;DHT22;6107;49.078;8.578;2023-02-18T05:12:13;11.90;99.90
12089;DHT22;6107;49.078;8.578;2023-02-18T05:14:39;11.90;99.90
12089;DHT22;6107;49.078;8.578;2023-02-18T05:17:04;11.90;99.90
12089;DHT22;6107;49.078;8.578;2023-02-18T05:19:30;11.80;99.90
12089;DHT22;6107;49.078;8.578;2023-02-18T05:21:55;11.90;99.90
12089;DHT22;6107;49.078;8.578;2023-02-18T05:24:21;11.80;99.90
12089;DHT22;6107;49.078;8.578;2023-02-18T05:26:46;11.80;99.90
12089;DHT22;6107;49.078;8.578;2023-02-18T05:29:12;11.90;99.90
12089;DHT22;6107;49.078;8.578;2023-02-18T05:31:37;11.90;99.90
12089;DHT22;6107;49.078;8.578;2023-02-18T05:34:03;11.80;99.90
12089;DHT22;6107;49.078;8.578;2023-02-18T05:36:29;11.80;99.90
12089;DHT22;6107;49.078;8.578;2023-02-18T05:38:54;11.80;99.90
12089;DHT22;6107;49.078;8.578;2023-02-18T05:41:20;11.90;99.90
12089;DHT22;6107;49.078;8.578;2023-02-18T05:43:46;11.80;99.90
12089;DHT22;6107;49.078;8.578;2023-02-18T05:46:30;11.40;99.90
12089;DHT22;6107;49.078;8.578;2023-02-18T05:48:56;11.80;99.90
12089;DHT22;6107;49.078;8.578;2023-02-18T05:51:21;11.80;99.90
12089;DHT22;6107;49.078;8.578;2023-02-18T05:53:47;11.80;99.90
12089;DHT22;6107;49.078;8.578;2023-02-18T05:56:12;11.80;99.90
12089;DHT22;6107;49.078;8.578;2023-02-18T05:58:38;11.80;99.90
12089;DHT22;6107;49.078;8.578;2023-02-18T06:01:03;11.80;99.90
12089;DHT22;6107;49.078;8.578;2023-02-18T06:03:29;11.80;99.90
12089;DHT22;6107;49.078;8.578;2023-02-18T06:05:54;11.80;99.90
12089;DHT22;6107;49.078;8.578;2023-02-18T06:08:20;11.80;99.90
12089;DHT22;6107;49.078;8.578;2023-02-18T06:10:46;11.90;99.90
12089;DHT22;6107;49.078;8.578;2023-02-18T06:13:11;11.80;99.90
12089;DHT22;6107;49.078;8.578;2023-02-18T06:15:38;11.80;99.90
12089;DHT22;6107;49.078;8.578;2023-02-18T06:18:04;11.90;99.90
12089;DHT22;6107;49.078;8.578;2023-02-18T06:20:30;11.80;99.90
12089;DHT22;6107;49.078;8.578;2023-02-18T06:22:56;11.90;99.90
12089;DHT22;6107;49.078;8.578;2023-02-18T06:25:21;11.90;99.90
12089;DHT22;6107;49.078;8.578;2023-02-18T06:27:47;11.80;99.90
12089;DHT22;6107;49.078;8.578;2023-02-18T06:30:13;11.90;99.90
12089;DHT22;6107;49.078;8.578;2023-02-18T06:32:38;11.90;99.90
12089;DHT22;6107;49.078;8.578;2023-02-18T06:35:04;11.90;99.90
12089;DHT22;6107;49.078;8.578;2023-02-18T06:37:29;11.90;99.90
12089;DHT22;6107;49.078;8.578;2023-02-18T06:39:55;11.90;99.90
12089;DHT22;6107;49.078;8.578;2023-02-18T06:42:20;11.90;99.90
12089;DHT22;6107;49.078;8.578;2023-02-18T06:44:46;12.00;99.90
12089;DHT22;6107;49.078;8.578;2023-02-18T06:47:11;11.90;99.90
12089;DHT22;6107;49.078;8.578;2023-02-18T06:49:37;11.90;99.90
12089;DHT22;6107;49.078;8.578;2023-02-18T06:52:03;11.90;99.90
12089;DHT22;6107;49.078;8.578;2023-02-18T06:54:29;11.90;99.90
12089;DHT22;6107;49.078;8.578;2023-02-18T06:56:55;11.90;99.90
12089;DHT22;6107;49.078;8.578;2023-02-18T06:59:20;11.90;99.90
12089;DHT22;6107;49.078;8.578;2023-02-18T07:01:46;11.90;99.90
12089;DHT22;6107;49.078;8.578;2023-02-18T07:04:11;11.90;99.90
12089;DHT22;6107;49.078;8.578;2023-02-18T07:06:37;11.90;99.90
12089;DHT22;6107;49.078;8.578;2023-02-18T07:09:04;11.90;99.90
12089;DHT22;6107;49.078;8.578;2023-02-18T07:11:29;11.90;99.90
12089;DHT22;6107;49.078;8.578;2023-02-18T07:13:55;12.00;99.90
12089;DHT22;6107;49.078;8.578;2023-02-18T07:16:21;12.00;99.90
12089;DHT22;6107;49.078;8.578;2023-02-18T07:18:46;12.10;99.90
12089;DHT22;6107;49.078;8.578;2023-02-18T07:21:11;12.10;99.90
12089;DHT22;6107;49.078;8.578;2023-02-18T07:23:37;12.10;99.90
12089;DHT22;6107;49.078;8.578;2023-02-18T07:26:08;12.10;99.90
12089;DHT22;6107;49.078;8.578;2023-02-18T07:28:34;12.10;99.90
12089;DHT22;6107;49.078;8.578;2023-02-18T07:30:59;12.20;99.90
12089;DHT22;6107;49.078;8.578;2023-02-18T07:33:25;12.20;99.90
12089;DHT22;6107;49.078;8.578;2023-02-18T07:35:55;12.20;99.90
12089;DHT22;6107;49.078;8.578;2023-02-18T07:38:21;12.20;99.90
12089;DHT22;6107;49.078;8.578;2023-02-18T07:40:48;12.30;99.90
12089;DHT22;6107;49.078;8.578;2023-02-18T07:43:13;12.30;99.90
12089;DHT22;6107;49.078;8.578;2023-02-18T07:45:39;12.30;99.90
12089;DHT22;6107;49.078;8.578;2023-02-18T07:48:04;12.30;99.90
12089;DHT22;6107;49.078;8.578;2023-02-18T07:50:30;12.40;99.90
12089;DHT22;6107;49.078;8.578;2023-02-18T07:53:02;12.40;99.90
12089;DHT22;6107;49.078;8.578;2023-02-18T07:55:28;12.50;99.90
12089;DHT22;6107;49.078;8.578;2023-02-18T07:58:12;12.50;99.90
12089;DHT22;6107;49.078;8.578;2023-02-18T08:00:37;12.50;99.90
12089;DHT22;6107;49.078;8.578;2023-02-18T08:03:03;12.50;99.90
12089;DHT22;6107;49.078;8.578;2023-02-18T08:05:28;12.60;99.90
12089;DHT22;6107;49.078;8.578;2023-02-18T08:07:54;12.60;99.90
12089;DHT22;6107;49.078;8.578;2023-02-18T08:10:20;12.70;99.90
12089;DHT22;6107;49.078;8.578;2023-02-18T08:12:45;12.70;99.90
12089;DHT22;6107;49.078;8.578;2023-02-18T08:15:11;12.80;99.90
12089;DHT22;6107;49.078;8.578;2023-02-18T08:17:37;12.80;99.90
12089;DHT22;6107;49.078;8.578;2023-02-18T08:20:02;12.90;99.90
12089;DHT22;6107;49.078;8.578;2023-02-18T08:22:28;12.90;99.90
12089;DHT22;6107;49.078;8.578;2023-02-18T08:24:54;12.90;99.90
12089;DHT22;6107;49.078;8.578;2023-02-18T08:27:21;12.90;99.90
12089;DHT22;6107;49.078;8.578;2023-02-18T08:29:46;12.90;99.90
12089;DHT22;6107;49.078;8.578;2023-02-18T08:32:12;13.00;99.90
12089;DHT22;6107;49.078;8.578;2023-02-18T08:34:38;13.00;99.90
12089;DHT22;6107;49.078;8.578;2023-02-18T08:37:03;13.00;99.90
12089;DHT22;6107;49.078;8.578;2023-02-18T08:39:36;13.10;99.90
12089;DHT22;6107;49.078;8.578;2023-02-18T08:42:02;13.20;99.90
12089;DHT22;6107;49.078;8.578;2023-02-18T08:44:28;13.20;99.90
12089;DHT22;6107;49.078;8.578;2023-02-18T08:46:53;13.20;99.90
12089;DHT22;6107;49.078;8.578;2023-02-18T08:49:19;13.20;99.90
12089;DHT22;6107;49.078;8.578;2023-02-18T08:51:46;13.20;99.90
12089;DHT22;6107;49.078;8.578;2023-02-18T08:59:04;13.20;99.90
12089;DHT22;6107;49.078;8.578;2023-02-18T09:01:30;13.20;99.90
12089;DHT22;6107;49.078;8.578;2023-02-18T09:03:56;13.20;99.90
12089;DHT22;6107;49.078;8.578;2023-02-18T09:06:22;13.20;99.90
12089;DHT22;6107;49.078;8.578;2023-02-18T09:08:47;13.20;99.90
12089;DHT22;6107;49.078;8.578;2023-02-18T09:13:39;13.20;99.90
12089;DHT22;6107;49.078;8.578;2023-02-18T09:16:07;13.20;99.90
12089;DHT22;6107;49.078;8.578;2023-02-18T09:18:34;13.20;99.90
12089;DHT22;6107;49.078;8.578;2023-02-18T09:21:00;13.20;99.90
12089;DHT22;6107;49.078;8.578;2023-02-18T09:23:27;13.20;99.90
12089;DHT22;6107;49.078;8.578;2023-02-18T09:25:53;13.30;99.90
12089;DHT22;6107;49.078;8.578;2023-02-18T09:30:46;13.20;99.90
12089;DHT22;6107;49.078;8.578;2023-02-18T09:33:12;13.20;99.90
12089;DHT22;6107;49.078;8.578;2023-02-18T09:35:39;13.30;99.90
12089;DHT22;6107;49.078;8.578;2023-02-18T09:38:07;13.30;99.90
12089;DHT22;6107;49.078;8.578;2023-02-18T09:40:35;13.20;99.90
12089;DHT22;6107;49.078;8.578;2023-02-18T09:43:02;13.30;99.90
12089;DHT22;6107;49.078;8.578;2023-02-18T09:45:28;13.40;99.90
12089;DHT22;6107;49.078;8.578;2023-02-18T09:47:54;13.40;99.90
12089;DHT22;6107;49.078;8.578;2023-02-18T09:50:28;13.40;99.90
12089;DHT22;6107;49.078;8.578;2023-02-18T09:52:57;13.50;99.90
12089;DHT22;6107;49.078;8.578;2023-02-18T09:55:33;13.50;99.90
12089;DHT22;6107;49.078;8.578;2023-02-18T09:58:27;13.40;99.90
12089;DHT22;6107;49.078;8.578;2023-02-18T10:01:04;13.50;99.90
12089;DHT22;6107;49.078;8.578;2023-02-18T10:03:31;13.50;99.90
12089;DHT22;6107;49.078;8.578;2023-02-18T10:06:07;13.50;99.90
12089;DHT22;6107;49.078;8.578;2023-02-18T10:11:01;13.60;99.90
12089;DHT22;6107;49.078;8.578;2023-02-18T10:13:30;13.50;99.90
12089;DHT22;6107;49.078;8.578;2023-02-18T10:15:56;13.50;99.90
12089;DHT22;6107;49.078;8.578;2023-02-18T10:18:30;13.50;99.90
12089;DHT22;6107;49.078;8.578;2023-02-18T10:21:04;13.50;99.90
12089;DHT22;6107;49.078;8.578;2023-02-18T10:25:58;13.60;99.90
12089;DHT22;6107;49.078;8.578;2023-02-18T10:28:25;13.60;99.90
12089;DHT22;6107;49.078;8.578;2023-02-18T10:31:07;13.70;99.90
12089;DHT22;6107;49.078;8.578;2023-02-18T10:33:46;13.70;99.90
12089;DHT22;6107;49.078;8.578;2023-02-18T10:39:01;13.80;99.90
12089;DHT22;6107;49.078;8.578;2023-02-18T10:41:50;13.80;99.90
12089;DHT22;6107;49.078;8.578;2023-02-18T10:44:51;13.80;99.90
12089;DHT22;6107;49.078;8.578;2023-02-18T10:47:26;13.80;99.90
12089;DHT22;6107;49.078;8.578;2023-02-18T10:49:59;13.80;99.90
12089;DHT22;6107;49.078;8.578;2023-02-18T10:52:35;13.90;99.90
12089;DHT22;6107;49.078;8.578;2023-02-18T10:55:04;13.90;99.90
12089;DHT22;6107;49.078;8.578;2023-02-18T10:57:30;13.90;99.90
12089;DHT22;6107;49.078;8.578;2023-02-18T11:00:00;13.90;99.90
12089;DHT22;6107;49.078;8.578;2023-02-18T11:02:29;14.00;99.90
12089;DHT22;6107;49.078;8.578;2023-02-18T11:04:57;13.90;99.90
12089;DHT22;6107;49.078;8.578;2023-02-18T11:07:32;14.00;99.90
12089;DHT22;6107;49.078;8.578;2023-02-18T11:10:06;13.90;99.90
12089;DHT22;6107;49.078;8.578;2023-02-18T11:12:50;13.90;99.90
12089;DHT22;6107;49.078;8.578;2023-02-18T11:15:25;14.00;99.90
12089;DHT22;6107;49.078;8.578;2023-02-18T11:17:53;13.90;99.90
12089;DHT22;6107;49.078;8.578;2023-02-18T11:22:48;13.80;99.90
12089;DHT22;6107;49.078;8.578;2023-02-18T11:25:26;13.80;99.90
12089;DHT22;6107;49.078;8.578;2023-02-18T11:27:56;13.80;99.90
12089;DHT22;6107;49.078;8.578;2023-02-18T11:30:38;13.70;99.90
12089;DHT22;6107;49.078;8.578;2023-02-18T11:33:10;13.80;99.90
12089;DHT22;6107;49.078;8.578;2023-02-18T11:35:48;13.90;99.90
12089;DHT22;6107;49.078;8.578;2023-02-18T11:38:44;14.00;99.90
12089;DHT22;6107;49.078;8.578;2023-02-18T11:41:10;14.00;99.90
12089;DHT22;6107;49.078;8.578;2023-02-18T11:43:41;14.10;99.90
12089;DHT22;6107;49.078;8.578;2023-02-18T11:46:15;14.10;99.90
12089;DHT22;6107;49.078;8.578;2023-02-18T11:48:41;14.10;99.90
12089;DHT22;6107;49.078;8.578;2023-02-18T11:51:20;14.20;99.90
12089;DHT22;6107;49.078;8.578;2023-02-18T11:54:25;14.30;99.90
12089;DHT22;6107;49.078;8.578;2023-02-18T11:57:11;14.20;99.90
12089;DHT22;6107;49.078;8.578;2023-02-18T11:59:39;14.20;99.90
12089;DHT22;6107;49.078;8.578;2023-02-18T12:04:41;14.40;99.90
12089;DHT22;6107;49.078;8.578;2023-02-18T12:07:16;14.30;99.90
12089;DHT22;6107;49.078;8.578;2023-02-18T12:09:49;14.30;99.90
12089;DHT22;6107;49.078;8.578;2023-02-18T12:12:23;14.30;99.90
12089;DHT22;6107;49.078;8.578;2023-02-18T12:14:53;14.30;99.90
12089;DHT22;6107;49.078;8.578;2023-02-18T12:17:45;14.40;99.90
12089;DHT22;6107;49.078;8.578;2023-02-18T12:20:35;14.40;99.90
12089;DHT22;6107;49.078;8.578;2023-02-18T12:23:41;14.20;99.90
12089;DHT22;6107;49.078;8.578;2023-02-18T12:32:03;14.20;99.90
12089;DHT22;6107;49.078;8.578;2023-02-18T12:34:43;14.20;99.90
12089;DHT22;6107;49.078;8.578;2023-02-18T12:51:18;14.50;99.90
12089;DHT22;6107;49.078;8.578;2023-02-18T12:54:18;14.50;99.90
12089;DHT22;6107;49.078;8.578;2023-02-18T13:05:37;15.00;99.90
12089;DHT22;6107;49.078;8.578;2023-02-18T13:14:12;15.60;99.90
12089;DHT22;6107;49.078;8.578;2023-02-18T13:16:43;16.10;99.90
12089;DHT22;6107;49.078;8.578;2023-02-18T13:19:20;15.70;99.90
12089;DHT22;6107;49.078;8.578;2023-02-18T13:21:49;15.30;99.90
12089;DHT22;6107;49.078;8.578;2023-02-18T13:27:12;15.50;99.90
12089;DHT22;6107;49.078;8.578;2023-02-18T13:32:47;15.80;99.90
12089;DHT22;6107;49.078;8.578;2023-02-18T13:38:30;15.50;99.90
12089;DHT22;6107;49.078;8.578;2023-02-18T13:41:00;15.40;99.90
12089;DHT22;6107;49.078;8.578;2023-02-18T13:48:52;14.90;99.90
12089;DHT22;6107;49.078;8.578;2023-02-18T13:56:42;15.20;99.90
12089;DHT22;6107;49.078;8.578;2023-02-18T13:59:20;15.10;99.90
12089;DHT22;6107;49.078;8.578;2023-02-18T14:01:49;15.20;99.90
12089;DHT22;6107;49.078;8.578;2023-02-18T14:09:45;15.30;99.90
12089;DHT22;6107;49.078;8.578;2023-02-18T14:15:49;15.00;99.90
12089;DHT22;6107;49.078;8.578;2023-02-18T14:33:47;14.70;99.90
12089;DHT22;6107;49.078;8.578;2023-02-18T14:36:50;14.70;99.90
12089;DHT22;6107;49.078;8.578;2023-02-18T14:45:00;14.70;99.90
12089;DHT22;6107;49.078;8.578;2023-02-18T14:47:55;14.60;99.90
12089;DHT22;6107;49.078;8.578;2023-02-18T14:50:23;14.50;99.90
12089;DHT22;6107;49.078;8.578;2023-02-18T14:55:31;14.50;99.90
12089;DHT22;6107;49.078;8.578;2023-02-18T14:58:05;14.50;99.90
12089;DHT22;6107;49.078;8.578;2023-02-18T15:00:34;14.40;99.90
12089;DHT22;6107;49.078;8.578;2023-02-18T15:05:31;14.50;99.90
12089;DHT22;6107;49.078;8.578;2023-02-18T15:08:06;14.40;99.90
12089;DHT22;6107;49.078;8.578;2023-02-18T15:13:06;14.10;99.90
12089;DHT22;6107;49.078;8.578;2023-02-18T15:15:33;14.30;99.90
12089;DHT22;6107;49.078;8.578;2023-02-18T15:18:01;14.30;99.90
12089;DHT22;6107;49.078;8.578;2023-02-18T15:20:30;14.20;99.90
12089;DHT22;6107;49.078;8.578;2023-02-18T15:22:56;14.20;99.90
12089;DHT22;6107;49.078;8.578;2023-02-18T15:25:22;14.10;99.90
12089;DHT22;6107;49.078;8.578;2023-02-18T15:27:50;14.10;99.90
12089;DHT22;6107;49.078;8.578;2023-02-18T15:30:29;14.20;99.90
12089;DHT22;6107;49.078;8.578;2023-02-18T15:32:57;13.90;99.90
12089;DHT22;6107;49.078;8.578;2023-02-18T15:35:26;14.00;99.90
12089;DHT22;6107;49.078;8.578;2023-02-18T15:37:56;13.80;99.90
12089;DHT22;6107;49.078;8.578;2023-02-18T15:40:26;13.80;99.90
12089;DHT22;6107;49.078;8.578;2023-02-18T15:42:56;13.80;99.90
12089;DHT22;6107;49.078;8.578;2023-02-18T15:47:57;13.70;99.90
12089;DHT22;6107;49.078;8.578;2023-02-18T15:50:33;13.70;99.90
12089;DHT22;6107;49.078;8.578;2023-02-18T15:58:03;13.50;99.90
12089;DHT22;6107;49.078;8.578;2023-02-18T16:03:12;13.50;99.90
12089;DHT22;6107;49.078;8.578;2023-02-18T16:05:38;13.50;99.90
12089;DHT22;6107;49.078;8.578;2023-02-18T16:08:23;13.40;99.90
12089;DHT22;6107;49.078;8.578;2023-02-18T16:11:03;13.40;99.90
12089;DHT22;6107;49.078;8.578;2023-02-18T16:13:30;13.50;99.90
12089;DHT22;6107;49.078;8.578;2023-02-18T16:15:56;13.30;99.90
12089;DHT22;6107;49.078;8.578;2023-02-18T16:18:29;13.20;99.90
12089;DHT22;6107;49.078;8.578;2023-02-18T16:21:31;13.30;99.90
12089;DHT22;6107;49.078;8.578;2023-02-18T16:24:02;13.30;99.90
12089;DHT22;6107;49.078;8.578;2023-02-18T16:29:23;13.20;99.90
12089;DHT22;6107;49.078;8.578;2023-02-18T16:31:47;13.10;99.90
12089;DHT22;6107;49.078;8.578;2023-02-18T16:34:12;13.00;99.90
12089;DHT22;6107;49.078;8.578;2023-02-18T16:36:38;13.10;99.90
12089;DHT22;6107;49.078;8.578;2023-02-18T16:39:23;13.00;99.90
12089;DHT22;6107;49.078;8.578;2023-02-18T16:41:49;13.00;99.90
12089;DHT22;6107;49.078;8.578;2023-02-18T16:44:15;12.90;99.90
12089;DHT22;6107;49.078;8.578;2023-02-18T16:49:11;12.90;99.90
12089;DHT22;6107;49.078;8.578;2023-02-18T16:51:38;12.90;99.90
12089;DHT22;6107;49.078;8.578;2023-02-18T16:54:04;12.90;99.90
12089;DHT22;6107;49.078;8.578;2023-02-18T16:56:31;12.80;99.90
12089;DHT22;6107;49.078;8.578;2023-02-18T16:58:57;12.70;99.90
12089;DHT22;6107;49.078;8.578;2023-02-18T17:01:29;12.70;99.90
12089;DHT22;6107;49.078;8.578;2023-02-18T17:04:00;12.70;99.90
12089;DHT22;6107;49.078;8.578;2023-02-18T17:06:26;12.60;99.90
12089;DHT22;6107;49.078;8.578;2023-02-18T17:08:52;12.60;99.90
12089;DHT22;6107;49.078;8.578;2023-02-18T17:11:29;12.60;99.90
12089;DHT22;6107;49.078;8.578;2023-02-18T17:13:55;12.50;99.90
12089;DHT22;6107;49.078;8.578;2023-02-18T17:16:24;12.50;99.90
12089;DHT22;6107;49.078;8.578;2023-02-18T17:18:49;12.40;99.90
12089;DHT22;6107;49.078;8.578;2023-02-18T17:21:19;12.40;99.90
12089;DHT22;6107;49.078;8.578;2023-02-18T17:23:46;12.40;99.90
12089;DHT22;6107;49.078;8.578;2023-02-18T17:26:18;12.30;99.90
12089;DHT22;6107;49.078;8.578;2023-02-18T17:28:44;12.30;99.90
12089;DHT22;6107;49.078;8.578;2023-02-18T17:31:17;12.30;99.90
12089;DHT22;6107;49.078;8.578;2023-02-18T17:33:44;12.30;99.90
12089;DHT22;6107;49.078;8.578;2023-02-18T17:36:10;12.30;99.90
12089;DHT22;6107;49.078;8.578;2023-02-18T17:38:37;12.30;99.90
12089;DHT22;6107;49.078;8.578;2023-02-18T17:41:03;12.30;99.90
12089;DHT22;6107;49.078;8.578;2023-02-18T17:43:28;12.20;99.90
12089;DHT22;6107;49.078;8.578;2023-02-18T17:45:55;12.20;99.90
12089;DHT22;6107;49.078;8.578;2023-02-18T17:48:24;12.10;99.90
12089;DHT22;6107;49.078;8.578;2023-02-18T17:50:51;12.10;99.90
12089;DHT22;6107;49.078;8.578;2023-02-18T17:53:17;12.10;99.90
12089;DHT22;6107;49.078;8.578;2023-02-18T17:55:44;12.10;99.90
12089;DHT22;6107;49.078;8.578;2023-02-18T17:58:11;12.10;99.90
12089;DHT22;6107;49.078;8.578;2023-02-18T18:00:39;12.10;99.90
12089;DHT22;6107;49.078;8.578;2023-02-18T18:03:05;12.10;99.90
12089;DHT22;6107;49.078;8.578;2023-02-18T18:05:33;12.10;99.90
12089;DHT22;6107;49.078;8.578;2023-02-18T18:08:00;12.20;99.90
12089;DHT22;6107;49.078;8.578;2023-02-18T18:10:28;12.10;99.90
12089;DHT22;6107;49.078;8.578;2023-02-18T18:12:57;12.10;99.90
12089;DHT22;6107;49.078;8.578;2023-02-18T18:15:29;12.10;99.90
12089;DHT22;6107;49.078;8.578;2023-02-18T18:17:56;12.00;99.90
12089;DHT22;6107;49.078;8.578;2023-02-18T18:20:24;12.00;99.90
12089;DHT22;6107;49.078;8.578;2023-02-18T18:22:52;12.00;99.90
12089;DHT22;6107;49.078;8.578;2023-02-18T18:27:45;12.00;99.90
12089;DHT22;6107;49.078;8.578;2023-02-18T18:30:11;12.00;99.90
12089;DHT22;6107;49.078;8.578;2023-02-18T18:32:37;12.00;99.90
12089;DHT22;6107;49.078;8.578;2023-02-18T18:35:03;12.00;99.90
12089;DHT22;6107;49.078;8.578;2023-02-18T18:37:34;12.00;99.90
12089;DHT22;6107;49.078;8.578;2023-02-18T18:39:59;12.00;99.90